Time;durP1;ratioP1;P1;durP2;ratioP2;P2;SDS_P1;SDS_P2;PMS_P1;PMS_P2;Temp;Humidity;BMP_temperature;BMP_pressure;BME280_temperature;BME280_humidity;BME280_pressure;Samples;Min_cycle;Max_cycle;Signal;HPM_P1;HPM_P2
2022/02/14 00:00:33;;;;;;;17.30;7.90;;;;;;;4.21;100.00;99744.81;4823456;29;20059;-82
2022/02/14 00:02:59;;;;;;;20.00;9.02;;;;;;;4.17;100.00;99727.53;4794757;29;20027;-81
2022/02/14 00:05:24;;;;;;;23.98;8.52;;;;;;;4.23;100.00;99735.63;4801526;29;20007;-82
2022/02/14 00:07:50;;;;;;;24.73;8.35;;;;;;;4.22;100.00;99727.81;4811816;29;20054;-81
2022/02/14 00:10:15;;;;;;;25.80;8.60;;;;;;;4.21;100.00;99724.34;4794620;29;20039;-81
2022/02/14 00:12:42;;;;;;;23.50;8.40;;;;;;;4.21;100.00;99708.38;4803488;29;20039;-82
2022/02/14 00:15:12;;;;;;;24.08;8.07;;;;;;;4.15;100.00;99701.09;4774393;30;20099;-82
2022/02/14 00:17:38;;;;;;;22.88;7.63;;;;;;;4.22;100.00;99706.53;4792475;30;20070;-82
2022/02/14 00:20:05;;;;;;;18.50;8.20;;;;;;;4.12;100.00;99684.69;4825963;29;20047;-82
2022/02/14 00:22:30;;;;;;;23.02;7.25;;;;;;;4.21;100.00;99695.06;4828676;29;20035;-82
2022/02/14 00:24:57;;;;;;;22.83;7.20;;;;;;;4.28;100.00;99687.16;4823004;29;20042;-82
2022/02/14 00:27:22;;;;;;;21.50;8.25;;;;;;;4.26;100.00;99688.34;4799650;29;20024;-83
2022/02/14 00:29:48;;;;;;;19.30;7.53;;;;;;;4.07;100.00;99649.78;4812082;29;20144;-82
2022/02/14 00:32:15;;;;;;;26.40;7.22;;;;;;;4.27;100.00;99680.16;4815335;29;20011;-81
2022/02/14 00:34:41;;;;;;;20.77;7.32;;;;;;;4.30;100.00;99676.28;4811859;29;20058;-82
2022/02/14 00:37:06;;;;;;;19.27;7.22;;;;;;;4.29;100.00;99662.16;4809533;30;20047;-81
2022/02/14 00:39:32;;;;;;;19.50;7.32;;;;;;;4.31;100.00;99672.63;4810241;29;20068;-82
2022/02/14 00:41:58;;;;;;;15.73;6.32;;;;;;;4.28;100.00;99657.84;4809741;29;20043;-81
2022/02/14 00:44:23;;;;;;;19.35;7.60;;;;;;;4.18;100.00;99639.50;4804351;29;20068;-82
2022/02/14 00:46:49;;;;;;;20.95;6.65;;;;;;;4.32;100.00;99655.66;4803382;29;20059;-81
2022/02/14 00:49:16;;;;;;;22.65;6.63;;;;;;;4.22;100.00;99637.28;4801388;29;20039;-81
2022/02/14 00:51:41;;;;;;;21.27;7.15;;;;;;;4.29;100.00;99646.19;4801167;30;20039;-82
2022/02/14 00:54:08;;;;;;;21.90;6.78;;;;;;;4.35;100.00;99641.97;4800057;29;20099;-81
2022/02/14 00:56:33;;;;;;;19.52;6.88;;;;;;;4.32;100.00;99632.50;4783063;30;20355;-81
2022/02/14 00:58:59;;;;;;;18.30;6.88;;;;;;;4.38;100.00;99644.25;4783199;30;20059;-82
2022/02/14 01:01:24;;;;;;;24.60;6.75;;;;;;;4.37;100.00;99623.94;4772247;29;20469;-82
2022/02/14 01:03:50;;;;;;;18.13;6.03;;;;;;;4.16;100.00;99608.75;4833795;29;20092;-82
2022/02/14 01:06:15;;;;;;;21.00;6.78;;;;;;;4.38;100.00;99637.06;4800216;29;20039;-81
2022/02/14 01:08:40;;;;;;;18.25;6.53;;;;;;;4.26;100.00;99603.94;4784435;30;20059;-81
2022/02/14 01:11:06;;;;;;;22.17;6.93;;;;;;;3.93;100.00;99553.00;4810178;29;20066;-82
2022/02/14 01:13:32;;;;;;;19.33;6.32;;;;;;;4.29;100.00;99595.59;4801476;29;20036;-82
2022/02/14 01:15:58;;;;;;;20.83;7.15;;;;;;;4.37;100.00;99616.78;4784668;30;20043;-81
2022/02/14 01:18:23;;;;;;;18.45;6.53;;;;;;;4.34;100.00;99597.69;4791306;29;20458;-82
2022/02/14 01:20:49;;;;;;;19.60;6.78;;;;;;;4.34;100.00;99595.00;4787878;30;20070;-82
2022/02/14 01:23:15;;;;;;;14.43;5.65;;;;;;;4.29;100.00;99589.44;4805293;29;20027;-83
2022/02/14 01:25:40;;;;;;;14.93;6.20;;;;;;;4.33;100.00;99590.72;4788485;30;20052;-82
2022/02/14 01:28:05;;;;;;;24.95;7.60;;;;;;;4.21;100.00;99567.25;4802886;29;20027;-82
2022/02/14 01:30:31;;;;;;;22.55;7.28;;;;;;;4.29;100.00;99573.47;4807090;29;20023;-81
2022/02/14 01:32:58;;;;;;;17.75;6.28;;;;;;;4.15;100.00;99548.53;4814636;29;20081;-82
2022/02/14 01:35:24;;;;;;;23.52;7.13;;;;;;;4.11;100.00;99536.63;4807284;29;20060;-80
2022/02/14 01:37:49;;;;;;;17.63;7.03;;;;;;;4.23;100.00;99541.25;4805720;30;20059;-81
2022/02/14 01:40:15;;;;;;;17.75;6.93;;;;;;;4.27;100.00;99562.16;4807629;29;20031;-81
2022/02/14 01:42:41;;;;;;;22.98;7.25;;;;;;;4.27;100.00;99549.66;4802078;29;20116;-82
2022/02/14 01:45:08;;;;;;;23.20;7.18;;;;;;;4.07;100.00;99511.38;4804164;29;20069;-82
2022/02/14 01:47:33;;;;;;;22.52;6.97;;;;;;;4.06;100.00;99515.06;4804614;29;20122;-83
2022/02/14 01:49:59;;;;;;;25.10;6.82;;;;;;;4.05;100.00;99508.91;4812033;29;20047;-81
2022/02/14 01:52:25;;;;;;;24.98;7.88;;;;;;;4.22;100.00;99526.28;4794557;29;20032;-82
2022/02/14 01:54:51;;;;;;;23.90;7.03;;;;;;;4.24;100.00;99526.13;4792623;30;20055;-83
2022/02/14 01:57:18;;;;;;;22.30;7.18;;;;;;;4.22;100.00;99515.63;4805430;29;20038;-83
2022/02/14 01:59:45;;;;;;;21.65;7.18;;;;;;;4.20;100.00;99517.66;4811012;30;20011;-83
2022/02/14 02:02:11;;;;;;;17.17;6.63;;;;;;;4.08;100.00;99489.91;4809883;29;20015;-83
2022/02/14 02:04:40;;;;;;;25.23;7.78;;;;;;;4.14;100.00;99494.47;4821374;29;20030;-83
2022/02/14 02:07:07;;;;;;;20.42;7.07;;;;;;;4.05;100.00;99482.28;4830301;29;20055;-81
2022/02/14 02:09:33;;;;;;;20.98;7.53;;;;;;;4.09;100.00;99494.19;4801588;30;20052;-83
2022/02/14 02:14:43;;;;;;;31.63;7.65;;;;;;;4.19;100.00;99491.22;4793252;30;20046;-83
2022/02/14 02:17:08;;;;;;;20.60;7.07;;;;;;;4.10;100.00;99474.53;4794768;30;20023;-83
2022/02/14 02:19:34;;;;;;;26.15;8.25;;;;;;;4.20;100.00;99485.69;4818880;29;20050;-81
2022/02/14 02:22:00;;;;;;;31.02;9.85;;;;;;;4.13;100.00;99457.38;4797062;29;20059;-81
2022/02/14 02:24:25;;;;;;;25.08;7.82;;;;;;;4.20;100.00;99480.38;4812993;29;20079;-83
2022/02/14 02:26:57;;;;;;;24.50;8.30;;;;;;;4.23;100.00;99477.34;4812070;29;20054;-83
2022/02/14 02:29:23;;;;;;;25.13;8.30;;;;;;;4.21;100.00;99463.41;4812684;29;20032;-83
2022/02/14 02:31:49;;;;;;;33.97;9.20;;;;;;;4.16;100.00;99443.69;4813742;29;20023;-83
2022/02/14 02:34:14;;;;;;;27.73;9.00;;;;;;;4.22;100.00;99454.41;4830944;29;20042;-83
2022/02/14 02:36:54;;;;;;;32.78;8.85;;;;;;;4.25;100.00;99442.56;4828383;29;20027;-84
2022/02/14 02:39:20;;;;;;;27.27;8.32;;;;;;;4.25;100.00;99447.88;4781071;30;20058;-83
2022/02/14 02:41:46;;;;;;;33.60;9.57;;;;;;;4.09;100.00;99416.19;4795512;29;20019;-84
2022/02/14 02:44:13;;;;;;;25.98;9.65;;;;;;;4.11;100.00;99407.00;4796876;29;20087;-83
2022/02/14 02:46:39;;;;;;;28.38;10.27;;;;;;;4.24;100.00;99431.09;4830982;29;20090;-83
2022/02/14 02:49:14;;;;;;;29.33;9.73;;;;;;;4.32;100.00;99429.28;4824962;29;20053;-83
2022/02/14 02:51:42;;;;;;;28.15;9.50;;;;;;;4.33;100.00;99420.28;4831116;29;20038;-82
2022/02/14 02:54:08;;;;;;;29.38;9.65;;;;;;;4.33;100.00;99412.28;4820767;29;20028;-82
2022/02/14 02:56:35;;;;;;;25.75;9.75;;;;;;;4.22;100.00;99387.03;4796176;29;20039;-83
2022/02/14 02:59:01;;;;;;;37.38;10.85;;;;;;;3.99;100.00;99344.66;4810864;30;20039;-83
2022/02/14 03:01:27;;;;;;;29.05;10.15;;;;;;;4.23;100.00;99384.16;4814432;29;20039;-82
2022/02/14 03:03:54;;;;;;;30.30;9.73;;;;;;;4.35;100.00;99403.09;4794346;29;20076;-82
2022/02/14 03:06:20;;;;;;;35.00;10.45;;;;;;;4.27;100.00;99381.09;4809104;29;20099;-82
2022/02/14 03:08:46;;;;;;;31.38;9.95;;;;;;;4.40;100.00;99394.50;4810894;29;20039;-82
2022/02/14 03:11:13;;;;;;;34.22;10.82;;;;;;;4.31;100.00;99375.22;4807031;29;20035;-83
2022/02/14 03:13:38;;;;;;;26.33;10.30;;;;;;;4.31;100.00;99369.06;4815963;29;20243;-82
2022/02/14 03:16:04;;;;;;;37.70;11.35;;;;;;;4.28;100.00;99361.47;4811665;29;20034;-83
2022/02/14 03:18:29;;;;;;;31.33;11.02;;;;;;;4.43;100.00;99378.97;4818660;29;20027;-82
2022/02/14 03:20:54;;;;;;;33.80;11.63;;;;;;;4.43;100.00;99367.50;4806225;29;20055;-82
2022/02/14 03:23:20;;;;;;;37.50;11.32;;;;;;;4.42;100.00;99372.00;4822628;29;20068;-82
2022/02/14 03:25:45;;;;;;;40.13;11.98;;;;;;;4.42;100.00;99363.19;4815047;29;20031;-83
2022/02/14 03:28:11;;;;;;;35.90;11.63;;;;;;;4.43;100.00;99355.00;4808054;30;20070;-83
2022/02/14 03:30:36;;;;;;;41.70;10.75;;;;;;;4.35;100.00;99341.84;4810113;29;20070;-82
2022/02/14 03:33:01;;;;;;;34.95;12.00;;;;;;;4.46;100.00;99346.63;4812426;29;20047;-82
2022/02/14 03:35:27;;;;;;;28.73;10.65;;;;;;;4.37;100.00;99315.00;4791954;30;20031;-82
2022/02/14 03:37:52;;;;;;;49.92;12.70;;;;;;;4.46;100.00;99345.81;4806918;29;20065;-82
2022/02/14 03:40:18;;;;;;;36.90;12.63;;;;;;;4.46;100.00;99337.81;4808756;29;20180;-81
2022/02/14 03:42:43;;;;;;;38.95;12.57;;;;;;;4.41;100.00;99321.63;4807305;29;20039;-82
2022/02/14 03:45:09;;;;;;;45.08;13.30;;;;;;;4.41;100.00;99318.94;4796758;29;20035;-82
2022/02/14 03:47:34;;;;;;;43.08;13.15;;;;;;;4.45;100.00;99328.19;4819444;29;20043;-82
2022/02/14 03:49:59;;;;;;;49.65;14.38;;;;;;;4.51;100.00;99315.94;4802813;29;20046;-82
2022/02/14 03:52:25;;;;;;;38.03;13.02;;;;;;;4.53;100.00;99328.03;4802890;29;20035;-81
2022/02/14 03:54:51;;;;;;;36.42;12.82;;;;;;;4.53;100.00;99317.38;4801743;29;20062;-82
2022/02/14 03:57:16;;;;;;;38.10;13.15;;;;;;;4.55;100.00;99310.00;4800427;29;20027;-82
2022/02/14 03:59:42;;;;;;;37.72;13.38;;;;;;;4.56;100.00;99308.16;4801499;29;20035;-80
2022/02/14 04:02:08;;;;;;;32.80;12.70;;;;;;;4.28;100.00;99254.97;4798861;29;20043;-82
2022/02/14 04:04:33;;;;;;;41.08;13.27;;;;;;;4.58;100.00;99312.28;4806474;29;20467;-82
2022/02/14 04:06:59;;;;;;;39.40;14.13;;;;;;;4.58;100.00;99293.63;4788799;29;20041;-81
2022/02/14 04:09:24;;;;;;;46.25;13.57;;;;;;;4.56;100.00;99293.00;4806421;29;20086;-81
2022/02/14 04:11:49;;;;;;;34.50;14.15;;;;;;;4.64;100.00;99290.19;4814082;29;20039;-80
2022/02/14 04:14:15;;;;;;;38.60;14.52;;;;;;;4.68;100.00;99296.75;4799603;29;20099;-81
2022/02/14 04:16:40;;;;;;;47.97;15.10;;;;;;;4.66;100.00;99293.47;4812102;29;20102;-81
2022/02/14 04:19:06;;;;;;;53.75;16.33;;;;;;;4.68;100.00;99286.09;4806442;29;20039;-80
2022/02/14 04:21:31;;;;;;;45.22;15.13;;;;;;;4.70;100.00;99286.72;4818287;29;20055;-81
2022/02/14 04:23:57;;;;;;;49.67;15.15;;;;;;;4.59;100.00;99265.97;4802258;29;20036;-82
2022/02/14 04:26:22;;;;;;;41.75;15.00;;;;;;;4.60;100.00;99278.28;4797788;29;20373;-81
2022/02/14 04:28:47;;;;;;;47.08;15.98;;;;;;;4.71;100.00;99274.22;4799409;29;20051;-81
2022/02/14 04:31:13;;;;;;;51.65;15.27;;;;;;;4.75;100.00;99279.97;4783718;29;20051;-81
2022/02/14 04:33:39;;;;;;;48.67;16.00;;;;;;;4.76;100.00;99273.63;4816342;29;20035;-82
2022/02/14 04:36:05;;;;;;;43.03;14.25;;;;;;;4.62;100.00;99257.56;4800638;29;20488;-82
2022/02/14 04:38:30;;;;;;;47.08;16.33;;;;;;;4.79;100.00;99274.03;4802403;29;20035;-81
2022/02/14 04:40:55;;;;;;;46.63;16.23;;;;;;;4.79;100.00;99286.56;4796649;29;20038;-82
2022/02/14 04:43:21;;;;;;;42.00;16.38;;;;;;;4.81;100.00;99279.19;4811937;29;20038;-81
2022/02/14 04:45:46;;;;;;;50.13;15.70;;;;;;;4.67;100.00;99254.34;4819591;29;20042;-81
2022/02/14 04:48:11;;;;;;;57.42;17.65;;;;;;;4.84;100.00;99276.94;4816053;29;20061;-82
2022/02/14 04:50:37;;;;;;;49.55;16.88;;;;;;;4.60;100.00;99230.34;4824470;29;20062;-82
2022/02/14 04:53:02;;;;;;;44.10;16.08;;;;;;;4.87;100.00;99270.41;4812326;29;20055;-81
2022/02/14 04:55:28;;;;;;;43.78;16.30;;;;;;;4.84;100.00;99274.28;4816186;29;20474;-82
2022/02/14 04:57:53;;;;;;;52.45;15.82;;;;;;;4.77;100.00;99256.59;4781188;30;20073;-81
2022/02/14 05:00:19;;;;;;;39.90;15.75;;;;;;;4.89;100.00;99268.34;4781195;30;20039;-82
2022/02/14 05:02:45;;;;;;;51.25;17.15;;;;;;;4.92;100.00;99259.94;4799448;29;20085;-82
2022/02/14 05:05:11;;;;;;;46.03;17.33;;;;;;;4.84;100.00;99247.63;4799840;29;20454;-80
2022/02/14 05:07:37;;;;;;;53.92;16.85;;;;;;;4.83;100.00;99245.16;4799001;29;20060;-81
2022/02/14 05:10:02;;;;;;;56.13;17.77;;;;;;;4.90;100.00;99249.50;4797855;29;20032;-82
2022/02/14 05:12:28;;;;;;;40.75;16.73;;;;;;;4.84;100.00;99246.81;4781362;30;20040;-82
2022/02/14 05:14:53;;;;;;;56.38;18.63;;;;;;;4.96;100.00;99263.84;4773809;30;20051;-82
2022/02/14 05:17:18;;;;;;;41.15;17.35;;;;;;;4.96;100.00;99261.19;4799961;29;20062;-82
2022/02/14 05:19:44;;;;;;;50.00;19.23;;;;;;;4.97;100.00;99257.50;4804140;29;20050;-82
2022/02/14 05:22:10;;;;;;;48.03;17.70;;;;;;;4.95;100.00;99256.88;4806462;29;20081;-84
2022/02/14 05:24:36;;;;;;;49.10;17.73;;;;;;;4.99;100.00;99247.47;4798439;29;20044;-83
2022/02/14 05:27:02;;;;;;;51.95;17.15;;;;;;;5.00;100.00;99259.78;4794159;29;20049;-80
2022/02/14 05:29:27;;;;;;;46.88;17.08;;;;;;;4.97;100.00;99256.66;4804545;29;21990;-82
2022/02/14 05:31:52;;;;;;;49.28;16.40;;;;;;;4.92;100.00;99241.28;4796704;29;20054;-81
2022/02/14 05:34:18;;;;;;;48.97;16.83;;;;;;;4.97;100.00;99246.00;4763720;29;20604;-80
2022/02/14 05:36:43;;;;;;;50.17;17.05;;;;;;;4.96;100.00;99245.19;4786015;29;20467;-80
2022/02/14 05:39:09;;;;;;;46.90;16.35;;;;;;;4.98;100.00;99245.81;4773728;29;20041;-81
2022/02/14 05:41:34;;;;;;;58.10;17.67;;;;;;;4.97;100.00;99238.00;4785614;29;20065;-82
2022/02/14 05:44:01;;;;;;;50.28;17.00;;;;;;;4.99;100.00;99247.47;4790497;29;20079;-80
2022/02/14 05:46:28;;;;;;;47.67;16.35;;;;;;;4.93;100.00;99240.25;4783180;29;20069;-81
2022/02/14 05:48:54;;;;;;;47.53;16.92;;;;;;;4.84;100.00;99223.66;4779711;29;20051;-80
2022/02/14 05:51:19;;;;;;;47.15;17.70;;;;;;;4.93;100.00;99234.94;4785152;29;20031;-79
2022/02/14 05:53:45;;;;;;;54.40;16.73;;;;;;;4.98;100.00;99243.16;4787740;29;20414;-80
2022/02/14 05:56:10;;;;;;;43.90;16.52;;;;;;;5.01;100.00;99248.09;4786860;29;20118;-79
2022/02/14 05:58:36;;;;;;;45.88;16.33;;;;;;;5.00;100.00;99240.28;4791065;29;20134;-81
2022/02/14 06:01:02;;;;;;;56.33;17.73;;;;;;;4.95;100.00;99233.72;4783206;29;20039;-79
2022/02/14 06:03:28;;;;;;;46.90;16.13;;;;;;;4.97;100.00;99228.19;4786005;29;20024;-80
2022/02/14 06:05:53;;;;;;;57.65;16.70;;;;;;;4.96;100.00;99239.84;4785140;29;20146;-81
2022/02/14 06:08:18;;;;;;;50.17;16.25;;;;;;;4.95;100.00;99241.72;4795069;29;20046;-81
2022/02/14 06:10:44;;;;;;;43.10;15.65;;;;;;;5.02;100.00;99247.06;4790933;29;20039;-80
2022/02/14 06:13:09;;;;;;;45.00;15.95;;;;;;;4.98;100.00;99237.81;4794770;29;20035;-81
2022/02/14 06:15:35;;;;;;;51.28;16.65;;;;;;;5.02;100.00;99249.72;4796775;29;20050;-82
2022/02/14 06:18:00;;;;;;;53.95;16.60;;;;;;;5.01;100.00;99240.09;4797207;29;20076;-80
2022/02/14 06:20:25;;;;;;;55.88;16.20;;;;;;;5.00;100.00;99245.59;4804349;29;20059;-82
2022/02/14 06:23:10;;;;;;;45.00;16.02;;;;;;;5.01;100.00;99250.75;4803382;29;20159;-82
2022/02/14 06:25:35;;;;;;;50.47;15.27;;;;;;;4.95;100.00;99238.22;4811565;29;20065;-81
2022/02/14 06:28:01;;;;;;;41.08;15.18;;;;;;;4.98;100.00;99243.16;4782170;29;20027;-82
2022/02/14 06:30:27;;;;;;;48.05;16.13;;;;;;;4.98;100.00;99243.16;4799742;29;20054;-81
2022/02/14 06:32:53;;;;;;;51.17;16.63;;;;;;;4.85;100.00;99227.94;4785414;29;20039;-81
2022/02/14 06:35:19;;;;;;;43.55;16.02;;;;;;;4.75;100.00;99202.72;4792409;29;20039;-81
2022/02/14 06:37:46;;;;;;;50.20;15.98;;;;;;;5.00;100.00;99249.13;4793415;29;20086;-81
2022/02/14 06:40:12;;;;;;;48.38;16.75;;;;;;;5.00;100.00;99241.13;4791284;29;20032;-81
2022/02/14 06:42:38;;;;;;;55.13;15.48;;;;;;;4.97;100.00;99233.53;4794382;29;20112;-81
2022/02/14 06:45:04;;;;;;;56.65;16.80;;;;;;;5.03;100.00;99245.22;4794397;29;20454;-81
2022/02/14 06:47:30;;;;;;;55.92;16.10;;;;;;;4.93;100.00;99227.78;4800536;29;20031;-82
2022/02/14 06:49:56;;;;;;;56.53;16.20;;;;;;;4.97;100.00;99246.00;4790626;29;20486;-80
2022/02/14 06:52:22;;;;;;;42.30;15.23;;;;;;;5.03;100.00;99250.53;4797565;29;20043;-81
2022/02/14 06:54:48;;;;;;;45.25;15.43;;;;;;;4.95;100.00;99231.03;4804410;29;20547;-80
2022/02/14 06:57:14;;;;;;;45.17;15.75;;;;;;;5.03;100.00;99251.34;4802149;29;20047;-79
2022/02/14 06:59:40;;;;;;;53.10;15.93;;;;;;;5.04;100.00;99247.69;4790079;29;20070;-81
2022/02/14 07:02:06;;;;;;;54.97;15.82;;;;;;;5.00;100.00;99250.94;4796664;29;20430;-80
2022/02/14 07:04:31;;;;;;;48.53;13.63;;;;;;;4.93;100.00;99229.59;4781137;29;20486;-79
2022/02/14 07:06:56;;;;;;;45.97;14.55;;;;;;;5.04;100.00;99250.34;4798429;29;20031;-79
2022/02/14 07:09:22;;;;;;;39.00;14.63;;;;;;;5.07;100.00;99246.47;4796084;29;20458;-79
2022/02/14 07:11:47;;;;;;;51.38;15.38;;;;;;;4.96;100.00;99218.53;4798230;29;20070;-80
2022/02/14 07:14:13;;;;;;;56.33;15.48;;;;;;;5.06;100.00;99242.97;4781929;29;20040;-80
2022/02/14 07:16:39;;;;;;;47.10;14.05;;;;;;;4.95;100.00;99216.91;4776043;29;20064;-81
2022/02/14 07:19:04;;;;;;;53.80;15.38;;;;;;;5.05;100.00;99230.66;4794955;29;20039;-81
2022/02/14 07:21:30;;;;;;;43.83;14.65;;;;;;;5.05;100.00;99236.00;4796769;29;20150;-80
2022/02/14 07:23:55;;;;;;;47.03;14.80;;;;;;;5.09;100.00;99233.75;4797223;29;20049;-79
2022/02/14 07:26:21;;;;;;;50.10;15.63;;;;;;;5.05;100.00;99230.66;4792711;29;20091;-80
2022/02/14 07:28:46;;;;;;;54.53;15.30;;;;;;;5.12;100.00;99239.50;4809046;29;20066;-79
2022/02/14 07:31:13;;;;;;;47.38;14.57;;;;;;;5.14;100.00;99229.44;4784665;29;20062;-80
2022/02/14 07:33:39;;;;;;;53.58;14.73;;;;;;;5.13;100.00;99233.16;4783545;29;20134;-80
2022/02/14 07:36:05;;;;;;;47.83;14.85;;;;;;;4.98;100.00;99211.16;4767599;29;20526;-80
2022/02/14 07:38:32;;;;;;;46.88;14.30;;;;;;;4.98;100.00;99205.84;4781431;29;20136;-80
2022/02/14 07:40:57;;;;;;;48.65;14.43;;;;;;;5.16;100.00;99235.38;4801124;29;20402;-80
2022/02/14 07:43:23;;;;;;;35.53;13.27;;;;;;;5.17;100.00;99237.06;4785597;29;20037;-80
2022/02/14 07:45:49;;;;;;;47.42;14.32;;;;;;;5.05;100.00;99217.34;4784875;29;20546;-81
2022/02/14 07:48:15;;;;;;;41.17;14.45;;;;;;;5.18;100.00;99227.19;4786227;29;20431;-80
2022/02/14 07:50:41;;;;;;;50.17;13.98;;;;;;;5.18;100.00;99229.88;4797352;29;20043;-81
2022/02/14 07:53:09;;;;;;;35.63;13.40;;;;;;;5.12;100.00;99223.50;4789896;29;20058;-80
2022/02/14 07:55:35;;;;;;;52.88;14.75;;;;;;;5.15;100.00;99228.41;4784531;29;20091;-80
2022/02/14 07:58:01;;;;;;;48.92;14.75;;;;;;;5.03;100.00;99215.88;4776390;29;20138;-80
2022/02/14 08:00:26;;;;;;;44.45;15.52;;;;;;;5.18;100.00;99238.69;4792952;29;20537;-81
2022/02/14 08:02:51;;;;;;;42.10;13.85;;;;;;;5.21;100.00;99239.31;4785192;29;20047;-81
2022/02/14 08:05:17;;;;;;;50.70;15.23;;;;;;;5.24;100.00;99234.41;4786220;29;20034;-81
2022/02/14 08:07:42;;;;;;;44.20;14.75;;;;;;;5.04;100.00;99205.03;4797137;29;20113;-80
2022/02/14 08:10:08;;;;;;;42.75;14.45;;;;;;;5.17;100.00;99226.38;4795714;29;20062;-81
2022/02/14 08:12:35;;;;;;;42.38;13.82;;;;;;;5.24;100.00;99228.25;4801416;29;20068;-81
2022/02/14 08:15:02;;;;;;;45.38;14.30;;;;;;;5.24;100.00;99234.41;4795390;29;20063;-81
2022/02/14 08:17:27;;;;;;;44.22;14.73;;;;;;;5.23;100.00;99235.44;4796377;29;20042;-80
2022/02/14 08:19:52;;;;;;;50.88;14.63;;;;;;;5.22;100.00;99244.44;4797672;29;20050;-80
2022/02/14 08:22:18;;;;;;;48.45;14.00;;;;;;;5.24;100.00;99239.72;4790130;30;20083;-81
2022/02/14 08:24:43;;;;;;;44.90;13.68;;;;;;;5.24;100.00;99231.72;4803157;29;20058;-81
2022/02/14 08:27:08;;;;;;;48.38;13.82;;;;;;;5.27;100.00;99236.66;4788136;29;20063;-82
2022/02/14 08:29:35;;;;;;;42.30;13.65;;;;;;;5.26;100.00;99232.31;4766342;29;20092;-80
2022/02/14 08:32:00;;;;;;;54.05;14.00;;;;;;;5.29;100.00;99231.09;4779396;29;20486;-81
2022/02/14 08:34:28;;;;;;;49.67;14.60;;;;;;;5.29;100.00;99234.59;4787012;29;20035;-81
2022/02/14 08:36:54;;;;;;;57.00;13.82;;;;;;;5.19;100.00;99221.66;4790113;29;20027;-81
2022/02/14 08:39:19;;;;;;;44.22;13.68;;;;;;;5.30;100.00;99235.44;4788284;29;20085;-81
2022/02/14 08:41:46;;;;;;;41.03;14.23;;;;;;;5.33;100.00;99235.00;4797187;29;20073;-83
2022/02/14 08:44:11;;;;;;;47.38;14.45;;;;;;;5.32;100.00;99233.38;4797467;29;20035;-80
2022/02/14 08:46:39;;;;;;;52.20;14.88;;;;;;;5.33;100.00;99238.50;4793977;29;20053;-81
2022/02/14 08:49:05;;;;;;;49.10;14.43;;;;;;;5.35;100.00;99231.13;4799452;29;20076;-83
2022/02/14 08:51:30;;;;;;;38.65;13.77;;;;;;;5.08;100.00;99200.13;4795755;29;20069;-79
2022/02/14 08:53:58;;;;;;;38.08;12.85;;;;;;;5.31;100.00;99232.56;4788370;29;20096;-81
2022/02/14 08:56:24;;;;;;;44.22;13.10;;;;;;;5.28;100.00;99227.63;4790737;29;20028;-80
2022/02/14 08:58:49;;;;;;;39.45;12.43;;;;;;;5.29;100.00;99226.59;4794655;29;20046;-81
2022/02/14 09:01:18;;;;;;;45.75;14.07;;;;;;;5.37;100.00;99228.25;4789202;29;20031;-81
2022/02/14 09:03:44;;;;;;;48.40;13.23;;;;;;;5.39;100.00;99236.84;4786690;29;20088;-81
2022/02/14 09:06:10;;;;;;;46.70;12.82;;;;;;;5.27;100.00;99214.50;4778435;29;20052;-81
2022/02/14 09:08:36;;;;;;;44.33;12.77;;;;;;;5.18;100.00;99206.69;4796113;29;20031;-81
2022/02/14 09:11:03;;;;;;;41.08;12.35;;;;;;;5.32;100.00;99222.69;4787003;29;20057;-81
2022/02/14 09:13:31;;;;;;;34.85;11.75;;;;;;;5.33;100.00;99219.00;4786465;29;20089;-82
2022/02/14 09:15:57;;;;;;;38.28;10.95;;;;;;;5.35;100.00;99230.28;4774567;30;20130;-80
2022/02/14 09:18:22;;;;;;;38.63;10.80;;;;;;;4.86;100.00;99149.63;4784518;29;20104;-81
2022/02/14 09:20:48;;;;;;;38.95;11.25;;;;;;;5.25;100.00;99208.53;4797294;29;20031;-81
2022/02/14 09:23:14;;;;;;;43.20;11.50;;;;;;;5.34;100.00;99226.81;4804111;29;20054;-81
2022/02/14 09:25:40;;;;;;;37.22;11.50;;;;;;;5.30;100.00;99214.09;4791215;29;20039;-80
2022/02/14 09:28:07;;;;;;;42.65;11.48;;;;;;;5.36;100.00;99229.25;4784317;29;20039;-80
2022/02/14 09:30:32;;;;;;;43.95;11.40;;;;;;;5.33;100.00;99229.66;4781529;29;20366;-80
2022/02/14 09:32:59;;;;;;;35.95;10.80;;;;;;;5.30;100.00;99214.91;4781883;29;20035;-80
2022/02/14 09:35:27;;;;;;;39.00;10.73;;;;;;;5.27;100.00;99215.31;4785950;29;20028;-80
2022/02/14 09:37:58;;;;;;;38.85;11.20;;;;;;;5.35;100.00;99233.78;4783263;29;20039;-81
2022/02/14 09:40:24;;;;;;;37.15;10.48;;;;;;;5.35;100.00;99231.13;4794389;29;20061;-82
2022/02/14 09:42:53;;;;;;;42.00;11.02;;;;;;;5.31;100.00;99227.22;4805011;29;20469;-81
2022/02/14 09:45:22;;;;;;;35.97;11.27;;;;;;;5.31;100.00;99215.72;4817558;29;20034;-81
2022/02/14 09:47:59;;;;;;;37.13;10.57;;;;;;;5.34;100.00;99226.00;4800903;29;20040;-81
2022/02/14 09:50:25;;;;;;;35.88;10.07;;;;;;;5.25;100.00;99221.88;4792425;29;20039;-81
2022/02/14 09:52:51;;;;;;;40.88;10.73;;;;;;;5.17;100.00;99202.38;4794274;30;20031;-81
2022/02/14 09:55:18;;;;;;;46.90;11.10;;;;;;;5.38;100.00;99236.03;4803940;29;20047;-81
2022/02/14 09:57:43;;;;;;;43.42;10.88;;;;;;;5.35;100.00;99228.44;4780399;30;20114;-81
2022/02/14 10:00:09;;;;;;;42.90;10.35;;;;;;;5.34;100.00;99237.47;4777136;29;20063;-81
2022/02/14 10:02:35;;;;;;;42.90;10.93;;;;;;;5.35;100.00;99232.97;4790149;29;20466;-81
2022/02/14 10:05:13;;;;;;;27.25;9.10;;;;;;;5.35;100.00;99232.97;4774291;30;20100;-81
2022/02/14 10:07:46;;;;;;;45.25;11.40;;;;;;;5.36;100.00;99231.94;4796965;29;20066;-80
2022/02/14 10:10:18;;;;;;;39.85;10.00;;;;;;;5.36;100.00;99229.25;4803171;29;20027;-80
2022/02/14 10:12:46;;;;;;;46.38;10.70;;;;;;;5.29;100.00;99226.59;4798289;29;20058;-80
2022/02/14 10:15:12;;;;;;;47.72;11.05;;;;;;;5.41;100.00;99229.50;4794407;29;20042;-80
2022/02/14 10:17:45;;;;;;;42.90;11.05;;;;;;;5.33;100.00;99225.19;4793264;29;20397;-81
2022/02/14 10:20:15;;;;;;;45.33;10.73;;;;;;;5.36;100.00;99223.94;4801984;29;20165;-82
2022/02/14 10:22:54;;;;;;;42.22;10.63;;;;;;;5.44;100.00;99234.41;4813309;29;20027;-81
2022/02/14 10:25:43;;;;;;;35.75;10.27;;;;;;;5.44;100.00;99237.09;4816618;29;20054;-81
2022/02/14 10:28:25;;;;;;;39.00;10.63;;;;;;;5.42;100.00;99245.28;4815176;29;20358;-81
2022/02/14 10:31:08;;;;;;;32.60;9.30;;;;;;;5.44;100.00;99239.75;4774904;30;20455;-81
2022/02/14 10:33:51;;;;;;;33.70;9.45;;;;;;;5.45;100.00;99244.06;4785866;29;20080;-81
2022/02/14 10:36:31;;;;;;;44.45;9.63;;;;;;;5.35;100.00;99225.78;4794840;29;20024;-81
2022/02/14 10:39:25;;;;;;;38.30;10.20;;;;;;;5.44;100.00;99229.06;4794046;29;21170;-80
2022/02/14 10:42:03;;;;;;;35.38;8.95;;;;;;;5.53;100.00;99248.34;4800330;29;20023;-80
2022/02/14 10:47:27;;;;;;;37.38;9.48;;;;;;;5.54;100.00;99242.00;4799947;29;20072;-83
2022/02/14 10:49:59;;;;;;;34.35;9.38;;;;;;;5.56;100.00;99251.47;4812303;29;20037;-82
2022/02/14 10:52:33;;;;;;;39.05;9.73;;;;;;;5.57;100.00;99258.44;4813042;29;20032;-81
2022/02/14 10:54:59;;;;;;;26.92;8.73;;;;;;;5.58;100.00;99251.25;4804975;29;20054;-82
2022/02/14 10:57:30;;;;;;;40.72;10.02;;;;;;;5.42;100.00;99223.94;4811582;29;20043;-82
2022/02/14 11:00:15;;;;;;;39.05;9.25;;;;;;;5.52;100.00;99244.88;4815944;29;20035;-83
2022/02/14 11:02:43;;;;;;;38.50;9.63;;;;;;;5.61;100.00;99257.00;4808713;30;20072;-83
2022/02/14 11:05:10;;;;;;;40.75;10.82;;;;;;;5.62;100.00;99253.28;4797541;29;20103;-82
2022/02/14 11:07:37;;;;;;;36.55;10.07;;;;;;;5.60;100.00;99235.88;4814393;29;20098;-83
2022/02/14 11:10:04;;;;;;;38.65;10.32;;;;;;;5.65;100.00;99250.22;4824180;29;20050;-82
2022/02/14 11:12:36;;;;;;;37.60;10.40;;;;;;;5.65;100.00;99250.22;4815453;29;20043;-82
2022/02/14 11:15:05;;;;;;;30.88;9.07;;;;;;;5.69;100.00;99244.47;4807123;29;20103;-81
2022/02/14 11:17:34;;;;;;;33.22;9.27;;;;;;;5.68;100.00;99245.50;4799558;30;20061;-81
2022/02/14 11:20:06;;;;;;;33.40;8.10;;;;;;;5.55;100.00;99225.78;4797467;29;20031;-81
2022/02/14 11:22:40;;;;;;;40.20;9.05;;;;;;;5.63;100.00;99238.94;4808282;29;20538;-81